Sunday, April 22, 2018, 1:51 PM EDT

KW99, Petersburg, Grant County Airport

Location: Petersburg, WV, United States Lat: 38.983
Local Time: 1:51 PM EDT (17:51 GMT) Lon: -79.133
Time Zone: US/Eastern Elev: 961 ft

Show me the last for .
Show Decoded

2018-04-22 13:30 METAR KW99 221730Z AUTO 28005KT 10SM SCT110 16/01 A3031 RMK AO2 T01590013 =
2018-04-22 13:10 METAR KW99 221710Z AUTO 27003KT 10SM CLR 16/01 A3031 RMK AO2 T01550009 =
2018-04-22 12:50 METAR KW99 221650Z AUTO 00000KT 10SM CLR 16/01 A3031 RMK AO2 T01560009 =
2018-04-22 12:30 METAR KW99 221630Z AUTO 00000KT 10SM CLR 15/01 A3032 RMK AO2 T01500005 =
2018-04-22 12:10 METAR KW99 221610Z AUTO 00000KT 10SM CLR 14/01 A3033 RMK AO2 T01410008 =
2018-04-22 11:50 METAR KW99 221550Z AUTO 00000KT 10SM CLR 14/00 A3034 RMK AO2 T01380002 =
2018-04-22 11:30 METAR KW99 221530Z AUTO 00000KT 10SM CLR 13/00 A3034 RMK AO2 T01300000 =
2018-04-22 11:10 METAR KW99 221510Z AUTO 00000KT 10SM CLR 13/00 A3034 RMK AO2 T01250000 =
2018-04-22 10:50 METAR KW99 221450Z AUTO 00000KT 10SM CLR 12/01 A3035 RMK AO2 T01200007 =
2018-04-22 10:30 METAR KW99 221430Z AUTO 00000KT 10SM CLR 11/00 A3036 RMK AO2 T01081001 =
2018-04-22 10:10 METAR KW99 221410Z AUTO 00000KT 10SM CLR 11/00 A3036 RMK AO2 T01081003 =
2018-04-22 09:50 METAR KW99 221350Z AUTO 00000KT 10SM CLR 10/02 A3036 RMK AO2 T00980016 =
2018-04-22 09:30 METAR KW99 221330Z AUTO 00000KT 10SM CLR 08/02 A3036 RMK AO2 T00830016 =
2018-04-22 09:10 METAR KW99 221310Z AUTO 00000KT 10SM CLR 08/01 A3036 RMK AO2 T00760012 =
2018-04-22 08:50 METAR KW99 221250Z AUTO 00000KT 10SM CLR 07/01 A3037 RMK AO2 T00660014 =
2018-04-22 08:30 METAR KW99 221230Z AUTO 00000KT 10SM CLR 06/01 A3037 RMK AO2 T00560010 =
2018-04-22 08:10 METAR KW99 221210Z AUTO 00000KT 10SM CLR 05/01 A3037 RMK AO2 T00490014 =
2018-04-22 07:50 METAR KW99 221150Z AUTO 00000KT 10SM CLR 05/02 A3037 RMK AO2 T00450019 10051
                 20025 =
2018-04-22 07:30 METAR KW99 221130Z AUTO 00000KT 10SM SCT120 04/02 A3036 RMK AO2 T00400021 =
2018-04-22 07:10 METAR KW99 221110Z AUTO 00000KT 10SM SCT120 03/02 A3036 RMK AO2 T00340018 =
2018-04-22 06:50 METAR KW99 221050Z AUTO 00000KT 10SM SCT110 04/01 A3035 RMK AO2 T00350011 =
2018-04-22 06:30 METAR KW99 221030Z AUTO 00000KT 10SM BKN110 03/02 A3034 RMK AO2 T00320015 =
2018-04-22 06:10 METAR KW99 221010Z AUTO 00000KT 10SM OVC110 03/01 A3034 RMK AO2 T00320014 =
2018-04-22 05:50 METAR KW99 220950Z AUTO 00000KT 10SM OVC110 03/02 A3034 RMK AO2 T00310015 =
2018-04-22 05:30 METAR KW99 220930Z AUTO 00000KT 10SM OVC110 03/01 A3034 RMK AO2 T00300014 =
2018-04-22 05:10 METAR KW99 220910Z AUTO 00000KT 10SM BKN110 04/01 A3034 RMK AO2 T00350011 =
2018-04-22 04:50 METAR KW99 220850Z AUTO 00000KT 10SM CLR 03/00 A3034 RMK AO2 T00310003 =
2018-04-22 04:30 METAR KW99 220830Z AUTO 00000KT 10SM SCT110 04/01 A3034 RMK AO2 T00360008 =
2018-04-22 04:10 METAR KW99 220810Z AUTO 00000KT 10SM CLR 04/01 A3034 RMK AO2 T00410005 =
2018-04-22 03:50 METAR KW99 220750Z AUTO 00000KT 10SM CLR 05/01 A3034 RMK AO2 T00450010 =
2018-04-22 03:30 METAR KW99 220730Z AUTO 00000KT 10SM SCT120 04/01 A3034 RMK AO2 T00440012 =
2018-04-22 03:10 METAR KW99 220710Z AUTO 00000KT 10SM BKN120 05/02 A3034 RMK AO2 T00460017 =
2018-04-22 02:50 METAR KW99 220650Z AUTO 00000KT 10SM BKN120 05/00 A3034 RMK AO2 T00500002 =
2018-04-22 02:30 METAR KW99 220630Z AUTO 00000KT 10SM OVC110 04/01 A3035 RMK AO2 T00430012 =
2018-04-22 02:10 METAR KW99 220610Z AUTO 00000KT 10SM BKN110 05/01 A3036 RMK AO2 T00460006 =
2018-04-22 01:50 METAR KW99 220550Z AUTO 00000KT 10SM SCT110 03/01 A3035 RMK AO2 T00330010 10144
                 20033 401871033 =
2018-04-22 01:30 METAR KW99 220530Z AUTO 00000KT 10SM BKN120 05/01 A3035 RMK AO2 T00460007 =
2018-04-22 01:10 METAR KW99 220510Z AUTO 00000KT 10SM BKN120 05/01 A3036 RMK AO2 T00450005 =
2018-04-22 00:50 METAR KW99 220450Z AUTO 00000KT 10SM SCT120 05/01 A3036 RMK AO2 T00530005 =
2018-04-22 00:30 METAR KW99 220430Z AUTO 00000KT 10SM CLR 05/00 A3036 RMK AO2 T00520001 =
2018-04-22 00:10 METAR KW99 220410Z AUTO 00000KT 10SM SCT120 06/01 A3036 RMK AO2 T00560005 =
2018-04-21 23:50 METAR KW99 220350Z AUTO 00000KT 10SM BKN120 06/01 A3035 RMK AO2 T00550007 =
2018-04-21 23:30 METAR KW99 220330Z AUTO 00000KT 10SM BKN120 06/01 A3035 RMK AO2 T00550007 =
2018-04-21 23:10 METAR KW99 220310Z AUTO 00000KT 10SM CLR 06/00 A3035 RMK AO2 T00580001 =
2018-04-21 22:50 METAR KW99 220250Z AUTO 28003KT 10SM CLR 06/01 A3035 RMK AO2 T00620007 =
2018-04-21 22:30 METAR KW99 220230Z AUTO 00000KT 10SM SCT120 08/00 A3035 RMK AO2 T00840003 =
2018-04-21 22:10 METAR KW99 220210Z AUTO 00000KT 10SM SCT120 08/00 A3035 RMK AO2 T00800001 =
2018-04-21 21:50 METAR KW99 220150Z AUTO 00000KT 10SM CLR 08/00 A3034 RMK AO2 T00820002 =
2018-04-21 21:30 METAR KW99 220130Z AUTO 00000KT 10SM CLR 11/M02 A3034 RMK AO2 T01111018 =
2018-04-21 21:10 METAR KW99 220110Z AUTO 00000KT 10SM CLR 09/00 A3033 RMK AO2 T00930002 =
2018-04-21 20:50 METAR KW99 220050Z AUTO 00000KT 10SM CLR 11/00 A3033 RMK AO2 T01101005 =
2018-04-21 20:30 METAR KW99 220030Z AUTO 00000KT 10SM CLR 12/M01 A3032 RMK AO2 T01191015 =
2018-04-21 20:10 METAR KW99 220010Z AUTO 33003KT 10SM CLR 14/M04 A3031 RMK AO2 T01401040 =
2018-04-21 19:50 METAR KW99 212350Z AUTO 00000KT 10SM CLR 15/M04 A3031 RMK AO2 T01451039 10187
                 20145 =
2018-04-21 19:30 METAR KW99 212330Z AUTO 00000KT 10SM CLR 15/M03 A3030 RMK AO2 T01471034 =
2018-04-21 19:10 METAR KW99 212310Z AUTO 08004KT 10SM CLR 16/M05 A3030 RMK AO2 T01571048 =
2018-04-21 18:50 METAR KW99 212250Z AUTO 08006KT 10SM CLR 16/M04 A3030 RMK AO2 T01561038 =
2018-04-21 18:30 METAR KW99 212230Z AUTO 09004KT 10SM CLR 17/M05 A3029 RMK AO2 T01711049 =
2018-04-21 18:10 METAR KW99 212210Z AUTO 00000KT 10SM CLR 18/M04 A3029 RMK AO2 T01751045 =
2018-04-21 17:50 METAR KW99 212150Z AUTO 11006KT 10SM CLR 18/M03 A3029 RMK AO2 T01821030 =
2018-04-21 17:30 METAR KW99 212130Z AUTO 09010KT 10SM CLR 18/M04 A3029 RMK AO2 T01811040 =
2018-04-21 17:10 METAR KW99 212110Z AUTO 03004KT 10SM CLR 19/M04 A3029 RMK AO2 T01861042 =
2018-04-21 16:50 METAR KW99 212050Z AUTO 00000KT 10SM CLR 19/M03 A3029 RMK AO2 T01851031 =
2018-04-21 16:30 METAR KW99 212030Z AUTO 03006KT 7SM CLR 18/M03 A3029 RMK AO2 T01801026 =
2018-04-21 16:10 METAR KW99 212010Z AUTO 10006KT 10SM CLR 18/M01 A3029 RMK AO2 T01751006 =
2018-04-21 15:50 METAR KW99 211950Z AUTO 00000KT 10SM CLR 17/00 A3030 RMK AO2 T01691005 =
2018-04-21 15:30 METAR KW99 211930Z AUTO 24004KT 10SM CLR 17/M02 A3031 RMK AO2 T01671021 =
2018-04-21 15:10 METAR KW99 211910Z AUTO 29003KT 10SM CLR 17/M02 A3032 RMK AO2 T01671019 =
2018-04-21 14:50 METAR KW99 211850Z AUTO 00000KT 10SM CLR 16/M04 A3033 RMK AO2 T01611036 =
2018-04-21 14:30 METAR KW99 211830Z AUTO 00000KT 10SM CLR 16/M04 A3034 RMK AO2 T01591038 =
2018-04-21 14:10 METAR KW99 211810Z AUTO 00000KT 10SM CLR 16/M03 A3034 RMK AO2 T01571035 =

Support USWX by starting your Amazon purchase here.